createdAt,value
2023-03-16T00:00:57.381Z,36.80
2023-03-16T00:04:46.327Z,37.60
2023-03-16T00:08:35.588Z,39.30
2023-03-16T00:12:24.727Z,37.10
2023-03-16T00:24:16.658Z,51.50
2023-03-16T00:27:56.716Z,45.50
2023-03-16T00:31:46.066Z,41.70
2023-03-16T00:35:35.117Z,47.10
2023-03-16T00:39:24.039Z,53.20
2023-03-16T00:43:12.839Z,44.40
2023-03-16T00:47:01.778Z,52.80
2023-03-16T00:50:51.092Z,53.80
2023-03-16T01:14:04.403Z,44.20
2023-03-16T01:17:53.403Z,43.10
2023-03-16T01:21:42.344Z,44.40
2023-03-16T01:25:31.713Z,49.00
2023-03-16T01:29:21.963Z,49.20
2023-03-16T01:33:12.108Z,51.20
2023-03-16T01:37:01.404Z,46.00
2023-03-16T01:40:50.992Z,49.10
2023-03-16T01:44:40.926Z,46.80
2023-03-16T01:49:29.756Z,47.90
2023-03-16T01:53:17.371Z,43.30
2023-03-16T01:57:05.200Z,49.80
2023-03-16T02:00:55.603Z,46.10
2023-03-16T02:04:42.591Z,42.40
2023-03-16T02:08:30.255Z,47.40
2023-03-16T02:12:18.280Z,50.60
2023-03-16T02:16:08.051Z,45.10
2023-03-16T02:19:47.988Z,46.60
2023-03-16T02:31:54.930Z,47.30
2023-03-16T02:35:44.214Z,40.20
2023-03-16T02:39:38.260Z,47.60
2023-03-16T02:43:27.497Z,41.70
2023-03-16T03:02:25.110Z,45.30
2023-03-16T03:06:14.904Z,45.70
2023-03-16T03:10:03.863Z,50.20
2023-03-16T03:13:45.901Z,48.50
2023-03-16T03:32:29.162Z,45.90
2023-03-16T03:36:18.262Z,56.00
2023-03-16T03:40:07.723Z,45.00
2023-03-16T03:44:19.793Z,50.30
2023-03-16T03:48:08.981Z,52.60
2023-03-16T03:51:58.059Z,49.70
2023-03-16T03:59:44.411Z,48.00
2023-03-16T04:03:34.411Z,43.20
2023-03-16T04:07:14.475Z,44.40
2023-03-16T04:11:02.565Z,47.80
2023-03-16T04:23:12.661Z,46.30
2023-03-16T04:27:03.605Z,50.30
2023-03-16T04:30:44.311Z,48.60
2023-03-16T04:34:38.420Z,45.40
2023-03-16T04:38:22.653Z,54.70
2023-03-16T04:49:17.227Z,59.40
2023-03-16T04:52:37.518Z,54.90
2023-03-16T04:56:16.237Z,54.30
2023-03-16T04:58:58.617Z,50.40
2023-03-16T05:01:52.440Z,57.20
2023-03-16T05:04:30.421Z,59.60
2023-03-16T05:07:49.115Z,58.00
2023-03-16T05:11:32.830Z,51.50
2023-03-16T05:14:32.951Z,55.20
2023-03-16T05:17:45.028Z,59.50
2023-03-16T05:20:28.017Z,55.30
2023-03-16T05:23:44.077Z,55.50
2023-03-16T05:26:53.409Z,65.20
2023-03-16T05:30:02.783Z,57.10
2023-03-16T05:33:34.706Z,72.80
2023-03-16T05:36:47.845Z,73.70
2023-03-16T05:40:29.822Z,65.80
2023-03-16T05:44:11.992Z,57.30
2023-03-16T05:48:06.873Z,65.70
2023-03-16T05:50:43.854Z,68.40
2023-03-16T05:53:24.858Z,63.60
2023-03-16T05:56:53.829Z,68.80
2023-03-16T06:00:28.087Z,65.50
2023-03-16T06:03:42.425Z,61.20
2023-03-16T06:06:19.843Z,67.10
2023-03-16T06:09:09.311Z,64.50
2023-03-16T06:12:44.033Z,59.10
2023-03-16T06:16:14.265Z,56.20
2023-03-16T06:20:04.389Z,60.80
2023-03-16T06:23:46.214Z,52.30
2023-03-16T06:27:32.755Z,57.50
2023-03-16T06:38:30.781Z,56.60
2023-03-16T06:42:05.369Z,51.50
2023-03-16T06:45:33.289Z,56.10
2023-03-16T06:49:11.008Z,62.10
2023-03-16T07:00:15.617Z,49.30
2023-03-16T07:04:04.831Z,50.40
2023-03-16T07:07:42.549Z,54.60
2023-03-16T07:11:26.495Z,50.30
2023-03-16T07:15:23.502Z,43.30
2023-03-16T07:18:57.093Z,47.30
2023-03-16T07:26:34.612Z,41.90
2023-03-16T07:31:03.086Z,41.00
2023-03-16T07:34:53.058Z,37.90
2023-03-16T07:38:43.712Z,32.80
2023-03-16T07:42:33.102Z,35.60
2023-03-16T07:46:09.361Z,33.00
2023-03-16T07:49:58.387Z,36.50
2023-03-16T07:53:49.310Z,36.00
2023-03-16T07:57:21.388Z,32.70
2023-03-16T08:01:10.654Z,36.90
2023-03-16T08:04:30.606Z,28.80
2023-03-16T08:07:46.113Z,33.10
2023-03-16T08:11:36.498Z,35.30
2023-03-16T08:33:33.554Z,27.60
2023-03-16T09:03:54.205Z,29.80
2023-03-16T09:07:43.369Z,28.40
2023-03-16T09:11:32.603Z,20.70
2023-03-16T09:15:22.446Z,25.50
2023-03-16T09:19:04.725Z,28.60
2023-03-16T09:22:43.204Z,21.80
2023-03-16T09:26:18.742Z,24.30
2023-03-16T09:30:03.207Z,26.80
2023-03-16T09:33:35.658Z,29.00
2023-03-16T09:37:09.523Z,27.50
2023-03-16T09:40:57.002Z,27.50
2023-03-16T09:44:57.697Z,25.20
2023-03-16T09:57:08.714Z,28.70
2023-03-16T10:00:58.495Z,27.90
2023-03-16T10:04:47.265Z,25.70
2023-03-16T10:08:46.803Z,19.90
2023-03-16T10:16:38.074Z,22.80
2023-03-16T10:20:12.983Z,20.40
2023-03-16T10:24:01.921Z,19.70
2023-03-16T10:27:16.060Z,21.20
2023-03-16T10:39:17.682Z,17.60
2023-03-16T10:43:02.060Z,19.20
2023-03-16T10:46:37.366Z,17.40
2023-03-16T10:50:27.636Z,16.20
2023-03-16T10:54:21.154Z,17.40
2023-03-16T11:10:40.509Z,16.70
2023-03-16T11:14:31.498Z,12.20
2023-03-16T11:18:32.070Z,13.90
2023-03-16T11:26:09.021Z,10.10
2023-03-16T11:29:59.305Z,12.40
2023-03-16T11:33:48.307Z,13.70
2023-03-16T11:37:38.653Z,13.10
2023-03-16T11:49:36.732Z,11.10
2023-03-16T11:53:29.686Z,10.20
2023-03-16T11:57:35.955Z,13.80
2023-03-16T12:01:45.134Z,10.70
2023-03-16T12:05:52.039Z,12.10
2023-03-16T12:18:09.066Z,9.40
2023-03-16T12:21:58.480Z,10.90
2023-03-16T12:34:09.031Z,7.50
2023-03-16T12:38:20.678Z,9.10
2023-03-16T12:42:12.661Z,11.90
2023-03-16T12:53:51.783Z,15.30
2023-03-16T12:57:46.541Z,11.90
2023-03-16T13:01:37.114Z,20.60
2023-03-16T13:05:42.702Z,15.20
2023-03-16T13:09:43.353Z,9.10
2023-03-16T13:21:27.641Z,12.60
2023-03-16T13:25:23.299Z,8.80
2023-03-16T13:29:02.805Z,11.00
2023-03-16T13:36:18.009Z,8.70
2023-03-16T13:40:19.806Z,12.40
2023-03-16T13:44:24.265Z,13.90
2023-03-16T13:48:24.323Z,13.20
2023-03-16T14:04:17.700Z,19.30
2023-03-16T14:08:01.073Z,10.10
2023-03-16T14:11:50.431Z,12.10
2023-03-16T14:15:40.321Z,11.50
2023-03-16T14:31:32.282Z,15.00
2023-03-16T14:35:20.840Z,11.40
2023-03-16T14:39:10.997Z,7.80
2023-03-16T14:43:02.224Z,11.30
2023-03-16T14:46:43.462Z,23.30
2023-03-16T15:05:07.429Z,17.00
2023-03-16T15:08:01.622Z,13.40
2023-03-16T15:11:19.605Z,20.60
2023-03-16T15:15:10.099Z,22.40
2023-03-16T15:22:27.566Z,12.90
2023-03-16T15:26:05.959Z,9.80
2023-03-16T15:29:00.882Z,9.90
2023-03-16T15:31:57.084Z,13.40
2023-03-16T15:35:29.509Z,11.40
2023-03-16T15:39:18.732Z,45.40
2023-03-16T15:46:24.290Z,14.50
2023-03-16T16:07:37.834Z,19.60
2023-03-16T16:11:15.178Z,16.40
2023-03-16T16:14:54.262Z,17.40
2023-03-16T16:18:23.813Z,17.80
2023-03-16T16:21:54.093Z,18.70
2023-03-16T16:25:31.232Z,15.90
2023-03-16T16:29:14.038Z,119.60
2023-03-16T16:32:34.632Z,128.20
2023-03-16T16:36:07.038Z,101.10
2023-03-16T16:47:35.382Z,22.60
2023-03-16T16:51:24.929Z,18.80
2023-03-16T16:55:12.692Z,17.50
2023-03-16T16:58:46.456Z,18.80
2023-03-16T17:02:17.737Z,19.90
2023-03-16T17:06:07.452Z,22.60
2023-03-16T17:25:15.613Z,111.70
2023-03-16T17:28:44.661Z,180.40
2023-03-16T17:32:33.661Z,175.90
2023-03-16T17:36:23.167Z,237.20
2023-03-16T17:40:15.405Z,145.30
2023-03-16T17:44:06.761Z,156.70
2023-03-16T17:47:56.889Z,127.90
2023-03-16T17:51:47.360Z,138.10
2023-03-16T17:55:37.676Z,218.60
2023-03-16T17:59:27.318Z,216.30
2023-03-16T18:03:15.293Z,160.90
2023-03-16T18:06:25.861Z,213.80
2023-03-16T18:09:36.161Z,236.50
2023-03-16T18:13:24.432Z,276.50
2023-03-16T18:17:16.598Z,143.50
2023-03-16T18:20:05.872Z,106.60
2023-03-16T18:23:28.726Z,99.50
2023-03-16T18:26:44.543Z,92.00
2023-03-16T18:29:47.245Z,141.10
2023-03-16T18:33:12.934Z,146.40
2023-03-16T18:36:58.360Z,183.30
2023-03-16T18:40:48.345Z,260.00
2023-03-16T18:44:01.141Z,172.80
2023-03-16T18:47:36.900Z,152.60
2023-03-16T18:51:24.967Z,189.50
2023-03-16T18:54:47.282Z,233.60
2023-03-16T18:58:19.048Z,188.80
2023-03-16T19:01:48.564Z,161.60
2023-03-16T19:05:20.206Z,159.80
2023-03-16T19:08:24.388Z,120.00
2023-03-16T19:11:35.865Z,115.90
2023-03-16T19:15:05.035Z,109.30
2023-03-16T19:17:33.630Z,115.90
2023-03-16T19:20:05.063Z,124.40
2023-03-16T19:22:38.408Z,116.70
2023-03-16T19:25:34.251Z,146.10
2023-03-16T19:28:26.915Z,89.60
2023-03-16T19:31:30.938Z,75.20
2023-03-16T19:34:35.229Z,70.60
2023-03-16T19:37:40.878Z,61.30
2023-03-16T19:40:58.684Z,59.90
2023-03-16T19:44:22.480Z,58.80
2023-03-16T19:48:15.158Z,67.80
2023-03-16T19:51:33.148Z,70.90
2023-03-16T19:58:48.330Z,100.20
2023-03-16T20:33:57.006Z,106.40
2023-03-16T20:36:39.388Z,99.00
2023-03-16T20:39:38.580Z,108.60
2023-03-16T20:42:49.912Z,113.30
2023-03-16T20:45:41.778Z,87.60
2023-03-16T20:48:19.651Z,65.10
2023-03-16T20:51:50.446Z,82.60
2023-03-16T20:54:21.554Z,101.20
2023-03-16T20:57:35.209Z,97.50
2023-03-16T21:00:51.543Z,91.40
2023-03-16T21:03:47.445Z,87.70
2023-03-16T21:06:59.147Z,99.70
2023-03-16T21:10:15.231Z,101.70
2023-03-16T21:13:25.175Z,92.00
2023-03-16T21:16:03.288Z,92.30
2023-03-16T21:18:50.707Z,61.70
2023-03-16T21:21:39.728Z,62.40
2023-03-16T21:24:28.378Z,62.00
2023-03-16T21:28:04.472Z,59.50
2023-03-16T21:31:50.249Z,61.30
2023-03-16T21:35:01.656Z,65.60
2023-03-16T21:38:30.330Z,61.00
2023-03-16T21:41:29.207Z,68.00
2023-03-16T21:44:00.277Z,55.60
2023-03-16T21:47:28.987Z,63.90
2023-03-16T21:51:14.266Z,72.10
2023-03-16T22:10:14.042Z,86.10
2023-03-16T22:14:21.412Z,88.30
2023-03-16T22:18:16.413Z,96.10
2023-03-16T22:22:05.891Z,84.00
2023-03-16T22:44:32.567Z,66.90
2023-03-16T22:48:24.230Z,60.90
2023-03-16T22:52:13.803Z,62.90
2023-03-16T22:56:04.712Z,70.30
2023-03-16T22:59:42.819Z,64.90
2023-03-16T23:03:25.898Z,66.50
2023-03-16T23:07:06.113Z,57.80
2023-03-16T23:10:56.125Z,62.90
2023-03-16T23:14:46.338Z,54.50
2023-03-16T23:18:37.210Z,57.80
2023-03-16T23:22:27.100Z,59.20
